createdAt,value
2022-12-25T00:00:47.563Z,100186.34
2022-12-25T00:03:15.780Z,100189.88
2022-12-25T00:05:43.924Z,100193.38
2022-12-25T00:08:11.949Z,100183.50
2022-12-25T00:10:45.180Z,100190.41
2022-12-25T00:13:15.115Z,100189.72
2022-12-25T00:15:43.255Z,100187.88
2022-12-25T00:18:11.297Z,100196.44
2022-12-25T00:20:39.482Z,100197.84
2022-12-25T00:23:07.484Z,100200.22
2022-12-25T00:25:35.474Z,100215.31
2022-12-25T00:28:03.573Z,100202.06
2022-12-25T00:30:33.184Z,100207.88
2022-12-25T00:33:01.146Z,100213.25
2022-12-25T00:35:29.086Z,100207.19
2022-12-25T00:37:57.724Z,100217.91
2022-12-25T00:40:26.006Z,100213.53
2022-12-25T00:42:54.106Z,100212.88
2022-12-25T00:45:22.402Z,100202.97
2022-12-25T00:47:52.156Z,100202.16
2022-12-25T00:50:20.414Z,100200.00
2022-12-25T00:52:48.783Z,100203.81
2022-12-25T00:55:16.766Z,100194.78
2022-12-25T00:57:44.831Z,100205.22
2022-12-25T01:00:13.743Z,100197.16
2022-12-25T01:02:41.884Z,100199.50
2022-12-25T01:05:11.750Z,100201.91
2022-12-25T01:07:39.893Z,100200.38
2022-12-25T01:10:23.155Z,100199.50
2022-12-25T01:12:52.216Z,100199.38
2022-12-25T01:15:20.575Z,100178.38
2022-12-25T01:17:49.059Z,100191.34
2022-12-25T01:20:19.435Z,100186.66
2022-12-25T01:22:47.533Z,100184.97
2022-12-25T01:25:15.521Z,100185.63
2022-12-25T01:27:43.821Z,100187.34
2022-12-25T01:30:12.920Z,100170.38
2022-12-25T01:32:41.003Z,100172.09
2022-12-25T01:35:09.647Z,100167.03
2022-12-25T01:37:39.085Z,100176.91
2022-12-25T01:40:09.089Z,100169.41
2022-12-25T01:42:37.189Z,100173.22
2022-12-25T01:45:34.772Z,100178.59
2022-12-25T01:48:05.762Z,100163.34
2022-12-25T01:50:35.682Z,100166.03
2022-12-25T01:53:06.098Z,100172.09
2022-12-25T01:55:35.293Z,100176.91
2022-12-25T01:58:03.810Z,100176.91
2022-12-25T02:00:31.810Z,100161.66
2022-12-25T02:03:00.580Z,100170.38
2022-12-25T02:05:30.687Z,100172.94
2022-12-25T02:08:02.722Z,100169.91
2022-12-25T02:10:32.268Z,100176.84
2022-12-25T02:13:02.417Z,100171.31
2022-12-25T02:15:41.904Z,100162.13
2022-12-25T02:18:17.899Z,100165.84
2022-12-25T02:21:04.594Z,100159.81
2022-12-25T02:24:02.253Z,100157.97
2022-12-25T02:26:57.285Z,100152.44
2022-12-25T02:29:33.702Z,100162.69
2022-12-25T02:32:06.896Z,100171.00
2022-12-25T02:34:39.554Z,100168.13
2022-12-25T02:37:12.099Z,100169.34
2022-12-25T02:39:59.908Z,100173.41
2022-12-25T02:43:05.750Z,100175.75
2022-12-25T02:45:58.478Z,100173.47
2022-12-25T02:48:49.041Z,100173.47
2022-12-25T02:51:37.966Z,100176.16
2022-12-25T02:54:28.575Z,100169.63
2022-12-25T02:57:17.305Z,100181.91
2022-12-25T03:00:06.181Z,100182.72
2022-12-25T03:02:53.794Z,100182.88
2022-12-25T03:05:41.664Z,100182.03
2022-12-25T03:08:16.844Z,100176.47
2022-12-25T03:11:08.938Z,100170.72
2022-12-25T03:13:41.310Z,100165.13
2022-12-25T03:16:26.882Z,100169.97
2022-12-25T03:19:00.897Z,100166.47
2022-12-25T03:21:46.894Z,100179.72
2022-12-25T03:24:32.168Z,100179.19
2022-12-25T03:27:01.009Z,100169.59
2022-12-25T03:29:49.451Z,100166.75
2022-12-25T03:32:24.108Z,100169.06
2022-12-25T03:35:19.362Z,100164.72
2022-12-25T03:38:14.706Z,100161.84
2022-12-25T03:41:12.773Z,100159.19
2022-12-25T03:44:07.037Z,100160.19
2022-12-25T03:46:56.981Z,100149.28
2022-12-25T03:49:49.382Z,100151.13
2022-12-25T03:52:38.196Z,100139.56
2022-12-25T03:55:28.650Z,100129.19
2022-12-25T03:58:13.935Z,100121.31
2022-12-25T04:00:59.270Z,100097.28
2022-12-25T04:03:44.508Z,100102.50
2022-12-25T04:06:28.988Z,100093.47
2022-12-25T04:09:16.771Z,100091.63
2022-12-25T04:12:03.077Z,100085.25
2022-12-25T04:14:48.866Z,100085.41
2022-12-25T04:17:34.697Z,100075.16
2022-12-25T04:20:19.781Z,100074.97
2022-12-25T04:23:05.841Z,100075.81
2022-12-25T04:25:53.106Z,100076.69
2022-12-25T04:28:39.008Z,100067.94
2022-12-25T04:31:24.896Z,100062.56
2022-12-25T04:34:10.428Z,100063.75
2022-12-25T04:36:38.859Z,100069.78
2022-12-25T04:39:06.915Z,100070.78
2022-12-25T04:41:36.406Z,100068.25
2022-12-25T04:44:04.780Z,100058.50
2022-12-25T04:46:33.018Z,100052.78
2022-12-25T04:49:01.270Z,100051.09
2022-12-25T04:51:29.341Z,100054.78
2022-12-25T04:53:57.890Z,100058.63
2022-12-25T04:56:25.862Z,100050.75
2022-12-25T04:58:55.232Z,100049.19
2022-12-25T05:01:23.670Z,100044.84
2022-12-25T05:03:51.835Z,100037.63
2022-12-25T05:06:20.032Z,100049.06
2022-12-25T05:08:48.238Z,100038.31
2022-12-25T05:11:18.042Z,100037.31
2022-12-25T05:13:46.457Z,100031.13
2022-12-25T05:16:19.044Z,100041.00
2022-12-25T05:18:49.876Z,100049.91
2022-12-25T05:21:18.832Z,100046.88
2022-12-25T05:23:49.841Z,100050.25
2022-12-25T05:26:19.610Z,100048.72
2022-12-25T05:28:48.192Z,100043.53
2022-12-25T05:31:18.317Z,100040.53
2022-12-25T05:33:46.493Z,100038.31
2022-12-25T05:36:15.793Z,100047.38
2022-12-25T05:38:43.953Z,100046.69
2022-12-25T05:41:12.181Z,100038.63
2022-12-25T05:43:40.481Z,100048.34
2022-12-25T05:46:11.626Z,100044.16
2022-12-25T05:48:42.771Z,100034.56
2022-12-25T05:51:13.494Z,100035.41
2022-12-25T05:53:43.912Z,100031.22
2022-12-25T05:56:12.446Z,100035.59
2022-12-25T05:58:42.407Z,100036.91
2022-12-25T06:01:15.373Z,100047.63
2022-12-25T06:03:45.724Z,100046.78
2022-12-25T06:06:14.413Z,100039.56
2022-12-25T06:08:42.480Z,100036.91
2022-12-25T06:11:11.760Z,100033.06
2022-12-25T06:13:39.809Z,100031.53
2022-12-25T06:16:09.698Z,100033.38
2022-12-25T06:18:38.404Z,100028.19
2022-12-25T06:21:10.160Z,100030.84
2022-12-25T06:23:38.787Z,100026.63
2022-12-25T06:26:08.485Z,100027.09
2022-12-25T06:28:36.720Z,100022.75
2022-12-25T06:31:08.667Z,100024.88
2022-12-25T06:33:37.699Z,100024.88
2022-12-25T06:36:09.092Z,100028.91
2022-12-25T06:38:37.440Z,100030.06
2022-12-25T06:41:07.194Z,100028.38
2022-12-25T06:43:35.507Z,100035.72
2022-12-25T06:46:05.106Z,100019.63
2022-12-25T06:48:34.416Z,100017.94
2022-12-25T06:51:04.259Z,100022.63
2022-12-25T06:53:40.224Z,100033.19
2022-12-25T06:56:15.548Z,100034.88
2022-12-25T06:58:45.213Z,100032.38
2022-12-25T07:01:18.574Z,100036.88
2022-12-25T07:03:48.577Z,100034.50
2022-12-25T07:06:17.071Z,100030.97
2022-12-25T07:08:46.511Z,100037.34
2022-12-25T07:11:15.018Z,100025.63
2022-12-25T07:13:43.130Z,100030.16
2022-12-25T07:16:12.474Z,100028.13
2022-12-25T07:18:41.871Z,100037.44
2022-12-25T07:21:11.651Z,100027.53
2022-12-25T07:23:41.612Z,100020.88
2022-12-25T07:26:13.577Z,100018.69
2022-12-25T07:28:42.588Z,100014.03
2022-12-25T07:31:13.786Z,100007.66
2022-12-25T07:33:42.763Z,100005.66
2022-12-25T07:36:13.057Z,100009.34
2022-12-25T07:38:41.642Z,100004.81
2022-12-25T07:41:11.784Z,100001.00
2022-12-25T07:43:39.785Z,99997.97
2022-12-25T07:46:08.047Z,99992.31
2022-12-25T07:48:37.701Z,99995.53
2022-12-25T07:51:07.958Z,99984.63
2022-12-25T07:53:36.515Z,99999.56
2022-12-25T07:56:07.057Z,100002.09
2022-12-25T07:58:36.986Z,100000.41
2022-12-25T08:01:07.215Z,99998.56
2022-12-25T08:03:36.725Z,100011.81
2022-12-25T08:06:07.160Z,100006.59
2022-12-25T08:08:35.911Z,100003.94
2022-12-25T08:11:04.526Z,100003.59
2022-12-25T08:13:33.444Z,100021.91
2022-12-25T08:16:04.446Z,100019.06
2022-12-25T08:18:33.249Z,100025.94
2022-12-25T08:21:04.262Z,100025.63
2022-12-25T08:23:32.488Z,100030.66
2022-12-25T08:26:04.993Z,100036.91
2022-12-25T08:28:34.610Z,100046.28
2022-12-25T08:31:09.457Z,100051.34
2022-12-25T08:33:38.647Z,100067.28
2022-12-25T08:36:09.010Z,100088.09
2022-12-25T08:50:29.601Z,100095.03
2022-12-25T08:52:58.001Z,100083.84
2022-12-25T08:55:26.679Z,100072.16
2022-12-25T08:57:55.800Z,100085.66
2022-12-25T09:00:40.726Z,100079.22
2022-12-25T09:03:24.905Z,100081.56
2022-12-25T09:06:31.745Z,100089.31
2022-12-25T09:12:01.645Z,100079.69
2022-12-25T10:57:19.367Z,100102.19
2022-12-25T10:59:56.179Z,100110.13
2022-12-25T11:02:29.902Z,100110.13
2022-12-25T11:05:04.076Z,100113.34
2022-12-25T11:07:33.767Z,100097.59
2022-12-25T11:10:06.045Z,100108.84
2022-12-25T11:12:38.907Z,100100.31
2022-12-25T11:15:31.134Z,100107.06
2022-12-25T11:18:00.831Z,100099.53
2022-12-25T11:20:29.278Z,100096.50
2022-12-25T11:22:57.417Z,100099.38
2022-12-25T11:25:28.127Z,100089.81
2022-12-25T11:28:01.278Z,100092.16
2022-12-25T11:30:31.355Z,100083.78
2022-12-25T11:33:19.316Z,100086.81
2022-12-25T11:35:55.398Z,100082.81
2022-12-25T11:38:25.152Z,100075.75
2022-12-25T11:41:00.699Z,100084.50
2022-12-25T11:43:35.340Z,100076.63
2022-12-25T11:46:15.221Z,100079.81
2022-12-25T11:48:56.402Z,100079.50
2022-12-25T11:51:28.885Z,100074.47
2022-12-25T11:54:02.426Z,100084.56
2022-12-25T11:56:32.776Z,100078.16
2022-12-25T11:59:10.552Z,100080.03
2022-12-25T12:01:51.719Z,100078.50
2022-12-25T12:04:29.959Z,100076.53
2022-12-25T12:07:06.935Z,100073.31
2022-12-25T12:09:57.404Z,100082.06
2022-12-25T12:12:36.541Z,100073.31
2022-12-25T12:15:14.510Z,100071.25
2022-12-25T12:17:42.862Z,100066.22
2022-12-25T12:20:29.964Z,100058.63
2022-12-25T12:22:58.951Z,100051.84
2022-12-25T12:25:28.473Z,100048.47
2022-12-25T12:28:05.433Z,100051.47
2022-12-25T12:30:36.110Z,100053.19
2022-12-25T12:33:13.123Z,100047.09
2022-12-25T12:35:43.477Z,100053.50
2022-12-25T12:38:17.919Z,100050.81
2022-12-25T12:40:55.057Z,100038.38
2022-12-25T12:43:35.342Z,100039.75
2022-12-25T12:46:14.533Z,100035.38
2022-12-25T12:48:44.797Z,100034.22
2022-12-25T12:51:27.853Z,100046.66
2022-12-25T12:54:20.879Z,100045.19
2022-12-25T12:57:11.431Z,100038.78
2022-12-25T12:59:44.878Z,100040.44
2022-12-25T13:02:46.149Z,100039.91
2022-12-25T13:05:20.812Z,100033.63
2022-12-25T13:08:00.271Z,100023.50
2022-12-25T13:10:33.894Z,100021.78
2022-12-25T13:13:16.511Z,100023.81
2022-12-25T13:15:48.366Z,100025.19
2022-12-25T13:18:16.903Z,100026.56
2022-12-25T13:20:54.983Z,100025.56
2022-12-25T13:23:33.757Z,100023.22
2022-12-25T13:26:04.567Z,100021.91
2022-12-25T13:28:34.869Z,100009.97
2022-12-25T13:31:04.860Z,100004.75
2022-12-25T13:33:33.257Z,100010.66
2022-12-25T13:36:01.635Z,100013.00
2022-12-25T13:38:45.547Z,100015.38
2022-12-25T13:41:36.988Z,100011.34
2022-12-25T13:44:08.057Z,100009.53
2022-12-25T13:46:36.604Z,100013.41
2022-12-25T13:49:14.859Z,100024.16
2022-12-25T13:51:43.063Z,100024.03
2022-12-25T13:54:14.547Z,100028.56
2022-12-25T13:56:49.781Z,100019.34
2022-12-25T13:59:20.000Z,100025.72
2022-12-25T14:01:49.203Z,100026.91
2022-12-25T14:04:20.708Z,100030.59
2022-12-25T14:06:49.630Z,100019.16
2022-12-25T14:09:22.077Z,100017.66
2022-12-25T14:11:53.784Z,100026.06
2022-12-25T14:14:24.220Z,100032.28
2022-12-25T14:16:57.203Z,100022.53
2022-12-25T14:19:28.302Z,100022.34
2022-12-25T14:22:01.642Z,100016.31
2022-12-25T14:24:32.969Z,100024.38
2022-12-25T14:27:03.605Z,100019.66
2022-12-25T14:29:38.057Z,100013.31
2022-12-25T14:32:08.353Z,100010.94
2022-12-25T14:34:36.659Z,100021.53
2022-12-25T14:37:05.944Z,100017.50
2022-12-25T14:40:23.353Z,100021.38
2022-12-25T14:42:58.709Z,100018.81
2022-12-25T14:45:30.981Z,100020.50
2022-12-25T14:48:02.953Z,100020.22
2022-12-25T14:50:33.728Z,100022.03
2022-12-25T14:53:02.753Z,100018.50
2022-12-25T14:55:32.670Z,100029.44
2022-12-25T14:58:04.725Z,100019.84
2022-12-25T15:00:36.534Z,100024.72
2022-12-25T15:03:08.869Z,100026.38
2022-12-25T15:05:39.218Z,100029.25
2022-12-25T15:08:26.714Z,100025.72
2022-12-25T15:11:01.150Z,100025.88
2022-12-25T15:13:30.668Z,100029.09
2022-12-25T15:16:01.604Z,100026.06
2022-12-25T15:18:42.175Z,100026.72
2022-12-25T15:21:17.413Z,100023.97
2022-12-25T15:23:46.503Z,100016.84
2022-12-25T15:26:17.256Z,100019.13
2022-12-25T15:28:45.804Z,100021.78
2022-12-25T15:31:22.453Z,100026.81
2022-12-25T15:33:51.189Z,100028.50
2022-12-25T15:36:19.636Z,100030.72
2022-12-25T15:38:47.754Z,100031.25
2022-12-25T15:41:34.987Z,100037.56
2022-12-25T15:44:03.446Z,100031.03
2022-12-25T15:46:32.418Z,100035.25
2022-12-25T15:49:07.873Z,100038.31
2022-12-25T15:51:37.215Z,100037.16
2022-12-25T15:54:06.008Z,100052.97
2022-12-25T15:56:43.984Z,100046.06
2022-12-25T15:59:16.328Z,100046.56
2022-12-25T16:01:48.455Z,100048.56
2022-12-25T16:04:20.515Z,100049.59
2022-12-25T16:06:53.765Z,100041.69
2022-12-25T16:09:23.411Z,100055.97
2022-12-25T16:12:22.984Z,100049.72
2022-12-25T16:20:59.103Z,100067.00
2022-12-25T16:26:22.313Z,100060.59
2022-12-25T16:28:53.125Z,100061.22
2022-12-25T16:31:24.885Z,100058.53
2022-12-25T16:33:55.876Z,100057.16
2022-12-25T16:36:27.008Z,100049.75
2022-12-25T16:38:56.779Z,100065.63
2022-12-25T16:41:25.532Z,100060.59
2022-12-25T16:43:55.579Z,100052.00
2022-12-25T16:46:27.701Z,100058.03
2022-12-25T16:49:06.336Z,100062.53
2022-12-25T16:51:42.087Z,100057.31
2022-12-25T16:54:10.688Z,100063.72
2022-12-25T16:56:42.736Z,100067.72
2022-12-25T16:59:13.620Z,100070.88
2022-12-25T17:01:43.624Z,100064.97
2022-12-25T17:04:12.009Z,100067.16
2022-12-25T17:06:41.503Z,100072.28
2022-12-25T17:09:10.836Z,100073.31
2022-12-25T17:11:39.271Z,100069.09
2022-12-25T17:14:07.590Z,100069.72
2022-12-25T17:16:44.611Z,100069.88
2022-12-25T17:19:30.203Z,100072.19
2022-12-25T17:22:00.430Z,100078.41
2022-12-25T17:24:30.080Z,100080.88
2022-12-25T17:26:58.423Z,100081.03
2022-12-25T17:29:26.480Z,100074.97
2022-12-25T17:31:56.780Z,100081.19
2022-12-25T17:34:24.916Z,100077.50
2022-12-25T17:36:54.390Z,100072.78
2022-12-25T17:39:22.608Z,100069.72
2022-12-25T17:41:51.633Z,100084.81
2022-12-25T17:44:23.069Z,100084.97
2022-12-25T17:46:52.137Z,100085.81
2022-12-25T17:49:39.104Z,100089.88
2022-12-25T17:52:07.541Z,100083.28
2022-12-25T17:54:39.427Z,100092.84
2022-12-25T17:57:07.614Z,100083.97
2022-12-25T17:59:35.841Z,100088.66
2022-12-25T18:02:04.340Z,100079.91
2022-12-25T18:04:34.315Z,100089.78
2022-12-25T18:07:03.462Z,100085.44
2022-12-25T18:09:31.550Z,100083.75
2022-12-25T18:11:59.797Z,100074.34
2022-12-25T18:14:28.122Z,100080.69
2022-12-25T18:16:56.235Z,100069.44
2022-12-25T18:19:24.193Z,100078.31
2022-12-25T18:21:54.113Z,100084.84
2022-12-25T18:24:22.326Z,100085.69
2022-12-25T18:26:50.985Z,100081.47
2022-12-25T18:29:35.652Z,100086.81
2022-12-25T18:32:04.216Z,100082.75
2022-12-25T18:34:32.743Z,100081.38
2022-12-25T18:37:04.167Z,100085.78
2022-12-25T18:39:33.937Z,100080.03
2022-12-25T18:42:19.612Z,100078.19
2022-12-25T18:44:48.134Z,100082.16
2022-12-25T18:47:16.450Z,100088.78
2022-12-25T18:49:54.962Z,100098.25
2022-12-25T18:52:49.304Z,100097.72
2022-12-25T18:55:13.788Z,100092.63
2022-12-25T19:00:29.756Z,100099.97
2022-12-25T19:02:59.974Z,100100.81
2022-12-25T19:05:29.339Z,100101.97
2022-12-25T19:07:59.008Z,100106.50
2022-12-25T19:10:28.273Z,100107.19
2022-12-25T19:12:57.072Z,100101.28
2022-12-25T19:15:25.822Z,100085.50
2022-12-25T19:20:42.120Z,100097.53
2022-12-25T19:23:14.749Z,100078.50
2022-12-25T19:25:43.526Z,100087.41
2022-12-25T19:28:12.353Z,100087.72
2022-12-25T19:30:41.219Z,100086.56
2022-12-25T19:33:17.474Z,100080.53
2022-12-25T19:35:47.147Z,100094.13
2022-12-25T19:38:17.072Z,100093.69
2022-12-25T19:41:01.402Z,100101.13
2022-12-25T19:43:36.028Z,100098.84
2022-12-25T19:46:05.114Z,100101.59
2022-12-25T19:48:34.555Z,100095.66
2022-12-25T19:51:03.079Z,100089.28
2022-12-25T19:53:33.132Z,100093.03
2022-12-25T19:56:04.874Z,100091.72
2022-12-25T19:58:34.328Z,100086.91
2022-12-25T20:01:08.347Z,100083.88
2022-12-25T20:03:45.572Z,100079.91
2022-12-25T20:06:23.889Z,100082.44
2022-12-25T20:09:00.333Z,100079.91
2022-12-25T20:14:32.581Z,100092.09
2022-12-25T20:17:12.163Z,100089.13
2022-12-25T20:19:45.597Z,100086.94
2022-12-25T20:22:14.050Z,100082.59
2022-12-25T20:25:03.662Z,100098.38
2022-12-25T20:27:32.037Z,100094.75
2022-12-25T20:30:00.577Z,100090.25
2022-12-25T20:32:50.435Z,100087.38
2022-12-25T20:35:21.304Z,100078.03
2022-12-25T20:37:50.610Z,100073.72
2022-12-25T20:43:33.559Z,100090.69
2022-12-25T20:46:08.309Z,100078.94
2022-12-25T20:48:50.483Z,100080.44
2022-12-25T20:51:35.236Z,100076.78
2022-12-25T20:54:08.346Z,100078.00
2022-12-25T21:11:21.323Z,100065.13
2022-12-25T21:13:51.727Z,100066.69
2022-12-25T21:16:25.461Z,100068.00
2022-12-25T21:55:34.856Z,100125.94
2022-12-25T22:00:48.489Z,100114.44
2022-12-25T22:03:38.159Z,100127.88
2022-12-25T22:06:26.200Z,100146.03
2022-12-25T22:09:05.183Z,100157.59
2022-12-25T22:11:52.852Z,100152.44
2022-12-25T22:15:07.654Z,100147.59
2022-12-25T22:23:59.336Z,100179.22
2022-12-25T22:29:24.472Z,100182.91
2022-12-25T22:32:02.236Z,100206.81
2022-12-25T22:34:48.029Z,100200.47
2022-12-25T22:42:42.084Z,100221.22
2022-12-25T22:48:03.781Z,100242.81
2022-12-25T22:53:24.036Z,100249.66
2022-12-25T23:12:53.395Z,100313.09
2022-12-25T23:15:32.971Z,100302.97
2022-12-25T23:18:25.363Z,100310.41
2022-12-25T23:21:13.306Z,100336.13
2022-12-25T23:39:01.608Z,100383.06
2022-12-25T23:41:35.994Z,100379.38
2022-12-25T23:44:07.344Z,100386.16
2022-12-25T23:46:37.413Z,100446.22
